createdAt,value
2022-11-12T00:00:32.314Z,20.65
2022-11-12T00:03:18.140Z,17.62
2022-11-12T00:06:04.178Z,18.55
2022-11-12T00:08:49.822Z,19.83
2022-11-12T00:11:35.542Z,22.37
2022-11-12T00:14:21.675Z,22.65
2022-11-12T00:17:07.651Z,20.00
2022-11-12T00:19:54.085Z,19.83
2022-11-12T00:22:39.839Z,19.52
2022-11-12T00:25:25.502Z,22.85
2022-11-12T00:28:11.290Z,22.73
2022-11-12T00:30:57.258Z,24.98
2022-11-12T00:33:43.457Z,21.80
2022-11-12T00:36:29.476Z,24.17
2022-11-12T00:39:15.267Z,22.85
2022-11-12T00:42:01.715Z,22.25
2022-11-12T00:44:47.447Z,23.17
2022-11-12T00:47:33.245Z,21.08
2022-11-12T00:50:19.009Z,21.30
2022-11-12T00:53:04.961Z,20.37
2022-11-12T00:55:50.615Z,21.37
2022-11-12T00:58:36.272Z,23.35
2022-11-12T01:01:22.056Z,20.33
2022-11-12T01:04:08.040Z,20.33
2022-11-12T01:06:53.915Z,18.25
2022-11-12T01:09:39.557Z,19.17
2022-11-12T01:12:25.323Z,20.85
2022-11-12T01:15:11.149Z,17.92
2022-11-12T01:17:56.782Z,19.30
2022-11-12T01:20:42.394Z,20.83
2022-11-12T01:23:28.314Z,21.08
2022-11-12T01:26:15.924Z,20.05
2022-11-12T01:29:02.394Z,23.75
2022-11-12T01:31:48.017Z,22.35
2022-11-12T01:34:33.877Z,22.95
2022-11-12T01:37:19.682Z,21.85
2022-11-12T01:40:06.039Z,20.92
2022-11-12T01:42:53.057Z,20.42
2022-11-12T01:45:45.470Z,25.58
2022-11-12T01:48:38.569Z,25.00
2022-11-12T01:51:27.968Z,26.33
2022-11-12T01:54:15.303Z,23.75
2022-11-12T01:57:02.022Z,23.38
2022-11-12T01:59:49.126Z,23.25
2022-11-12T02:02:36.797Z,25.48
2022-11-12T02:05:23.278Z,22.87
2022-11-12T02:08:11.111Z,22.92
2022-11-12T02:10:56.773Z,24.90
2022-11-12T02:13:58.081Z,23.73
2022-11-12T02:16:45.453Z,21.12
2022-11-12T02:19:31.432Z,20.55
2022-11-12T02:22:17.162Z,22.08
2022-11-12T02:25:02.947Z,26.25
2022-11-12T02:27:51.661Z,25.00
2022-11-12T02:30:44.080Z,26.00
2022-11-12T02:33:29.863Z,22.62
2022-11-12T02:36:15.632Z,27.87
2022-11-12T02:39:01.701Z,28.23
2022-11-12T02:41:47.611Z,26.52
2022-11-12T02:44:33.569Z,23.05
2022-11-12T02:47:19.213Z,26.15
2022-11-12T02:50:05.438Z,26.85
2022-11-12T02:52:51.414Z,29.30
2022-11-12T02:55:37.212Z,24.67
2022-11-12T02:58:23.331Z,22.87
2022-11-12T03:01:09.107Z,25.58
2022-11-12T03:03:55.245Z,24.90
2022-11-12T03:06:41.123Z,26.95
2022-11-12T03:09:27.168Z,26.12
2022-11-12T03:14:58.792Z,23.05
2022-11-12T03:17:44.418Z,25.77
2022-11-12T03:20:30.305Z,25.05
2022-11-12T03:23:16.201Z,25.77
2022-11-12T03:26:03.341Z,24.35
2022-11-12T03:28:51.343Z,27.98
2022-11-12T03:31:37.017Z,25.35
2022-11-12T03:34:22.889Z,28.67
2022-11-12T03:37:09.613Z,28.70
2022-11-12T03:39:55.433Z,28.15
2022-11-12T03:42:48.237Z,29.58
2022-11-12T03:45:34.339Z,29.30
2022-11-12T03:48:20.125Z,26.77
2022-11-12T03:51:05.837Z,27.20
2022-11-12T03:53:51.716Z,26.67
2022-11-12T03:56:37.442Z,28.75
2022-11-12T03:59:23.094Z,28.17
2022-11-12T04:02:14.327Z,28.33
2022-11-12T04:05:19.251Z,24.63
2022-11-12T04:08:34.942Z,28.58
2022-11-12T04:11:21.086Z,21.83
2022-11-12T04:14:07.030Z,24.25
2022-11-12T04:17:11.161Z,25.27
2022-11-12T04:20:15.630Z,24.98
2022-11-12T04:23:01.599Z,23.87
2022-11-12T04:26:05.593Z,28.85
2022-11-12T04:29:10.026Z,27.60
2022-11-12T04:31:55.935Z,26.12
2022-11-12T04:34:42.113Z,22.90
2022-11-12T04:37:29.765Z,23.15
2022-11-12T04:40:42.808Z,24.55
2022-11-12T04:43:47.252Z,32.92
2022-11-12T04:46:33.263Z,24.23
2022-11-12T04:49:18.927Z,30.08
2022-11-12T04:52:07.786Z,23.70
2022-11-12T04:54:54.024Z,25.10
2022-11-12T04:57:40.040Z,26.52
2022-11-12T05:00:25.816Z,23.45
2022-11-12T05:03:11.786Z,21.85
2022-11-12T05:06:04.527Z,27.67
2022-11-12T05:08:50.539Z,25.40
2022-11-12T05:11:36.419Z,25.83
2022-11-12T05:14:23.325Z,27.85
2022-11-12T05:17:09.242Z,23.48
2022-11-12T05:19:54.908Z,27.45
2022-11-12T05:22:47.734Z,23.87
2022-11-12T05:25:36.443Z,28.62
2022-11-12T05:31:08.526Z,25.88
2022-11-12T05:33:54.572Z,25.00
2022-11-12T05:36:40.460Z,24.73
2022-11-12T05:39:26.260Z,26.50
2022-11-12T05:42:13.803Z,25.58
2022-11-12T05:45:00.207Z,23.08
2022-11-12T05:47:46.064Z,22.77
2022-11-12T05:50:39.811Z,23.62
2022-11-12T05:53:31.190Z,23.90
2022-11-12T05:56:16.953Z,25.67
2022-11-12T05:59:08.255Z,21.58
2022-11-12T06:01:54.887Z,24.58
2022-11-12T06:04:40.578Z,22.65
2022-11-12T06:07:26.225Z,24.67
2022-11-12T06:10:16.049Z,23.83
2022-11-12T06:13:05.032Z,21.35
2022-11-12T06:15:51.863Z,25.37
2022-11-12T06:18:37.591Z,32.67
2022-11-12T06:21:23.247Z,108.03
2022-11-12T06:24:08.929Z,100.70
2022-11-12T06:26:54.780Z,50.03
2022-11-12T06:29:40.705Z,41.45
2022-11-12T06:32:26.429Z,46.40
2022-11-12T06:35:12.102Z,38.70
2022-11-12T06:37:57.744Z,44.85
2022-11-12T06:40:43.755Z,55.15
2022-11-12T06:43:31.100Z,47.13
2022-11-12T06:46:17.787Z,40.83
2022-11-12T06:49:03.798Z,44.42
2022-11-12T06:51:52.553Z,37.90
2022-11-12T06:54:38.351Z,52.70
2022-11-12T06:57:24.185Z,57.42
2022-11-12T07:00:11.778Z,59.55
2022-11-12T07:02:57.866Z,53.80
2022-11-12T07:05:43.767Z,42.92
2022-11-12T07:08:30.101Z,42.88
2022-11-12T07:11:17.918Z,38.25
2022-11-12T07:14:06.870Z,43.65
2022-11-12T07:16:52.827Z,44.85
2022-11-12T07:19:38.515Z,33.22
2022-11-12T07:22:24.671Z,34.15
2022-11-12T07:25:10.187Z,33.72
2022-11-12T07:27:55.889Z,36.17
2022-11-12T07:30:41.691Z,34.35
2022-11-12T07:33:28.477Z,41.50
2022-11-12T07:36:16.099Z,44.42
2022-11-12T07:39:02.215Z,43.42
2022-11-12T07:41:47.950Z,39.92
2022-11-12T07:44:33.736Z,37.38
2022-11-12T07:47:19.655Z,33.63
2022-11-12T07:50:05.779Z,35.30
2022-11-12T07:52:51.915Z,37.05
2022-11-12T07:55:37.759Z,27.80
2022-11-12T07:58:24.675Z,29.50
2022-11-12T08:01:23.164Z,26.65
2022-11-12T08:04:10.322Z,25.73
2022-11-12T08:06:56.239Z,27.80
2022-11-12T08:09:42.276Z,30.88
2022-11-12T08:12:29.223Z,33.53
2022-11-12T08:15:15.047Z,36.85
2022-11-12T08:18:00.770Z,35.25
2022-11-12T08:20:46.564Z,31.73
2022-11-12T08:23:32.555Z,32.55
2022-11-12T08:26:19.854Z,31.25
2022-11-12T08:29:08.727Z,32.22
2022-11-12T08:31:54.714Z,31.20
2022-11-12T08:34:41.369Z,27.13
2022-11-12T08:37:27.439Z,27.98
2022-11-12T08:40:13.221Z,31.00
2022-11-12T08:43:04.162Z,29.02
2022-11-12T08:45:50.161Z,32.22
2022-11-12T08:48:36.658Z,26.60
2022-11-12T08:51:22.530Z,34.10
2022-11-12T08:54:08.611Z,32.05
2022-11-12T08:56:54.444Z,29.48
2022-11-12T08:59:39.989Z,33.40
2022-11-12T09:02:25.751Z,32.17
2022-11-12T09:05:11.286Z,36.70
2022-11-12T09:07:59.110Z,31.60
2022-11-12T09:10:45.500Z,31.30
2022-11-12T09:13:31.565Z,29.92
2022-11-12T09:16:18.106Z,33.92
2022-11-12T09:19:04.182Z,31.62
2022-11-12T09:21:49.804Z,34.95
2022-11-12T09:24:35.605Z,36.50
2022-11-12T09:27:21.259Z,28.12
2022-11-12T09:30:07.747Z,31.27
2022-11-12T09:32:57.947Z,36.92
2022-11-12T09:35:45.545Z,32.80
2022-11-12T09:38:31.540Z,35.83
2022-11-12T09:41:22.627Z,33.63
2022-11-12T09:44:15.415Z,35.90
2022-11-12T09:47:08.021Z,36.08
2022-11-12T09:52:44.277Z,34.28
2022-11-12T09:55:36.771Z,36.00
2022-11-12T09:58:22.616Z,35.70
2022-11-12T10:01:17.240Z,30.77
2022-11-12T10:04:17.656Z,33.75
2022-11-12T10:07:09.461Z,34.42
2022-11-12T10:10:03.841Z,30.67
2022-11-12T10:13:17.594Z,31.52
2022-11-12T10:16:42.785Z,32.78
2022-11-12T10:19:49.951Z,34.00
2022-11-12T10:22:44.628Z,35.92
2022-11-12T10:25:31.406Z,29.83
2022-11-12T10:28:33.104Z,33.53
2022-11-12T10:31:22.170Z,31.75
2022-11-12T10:34:13.890Z,30.08
2022-11-12T10:37:12.155Z,30.70
2022-11-12T10:39:57.691Z,31.67
2022-11-12T10:43:00.570Z,32.28
2022-11-12T10:45:49.221Z,35.47
2022-11-12T10:48:35.647Z,27.40
2022-11-12T10:51:57.736Z,30.67
2022-11-12T10:54:43.756Z,31.25
2022-11-12T10:57:29.602Z,28.73
2022-11-12T11:00:18.979Z,27.85
2022-11-12T11:03:22.814Z,31.73
2022-11-12T11:06:14.729Z,29.20
2022-11-12T11:09:16.691Z,34.75
2022-11-12T11:12:02.856Z,26.17
2022-11-12T11:15:07.326Z,31.33
2022-11-12T11:17:53.457Z,29.70
2022-11-12T11:20:44.545Z,30.67
2022-11-12T11:23:46.297Z,27.17
2022-11-12T11:26:50.912Z,25.12
2022-11-12T11:30:15.294Z,25.48
2022-11-12T11:33:10.082Z,23.90
2022-11-12T11:36:22.112Z,27.48
2022-11-12T11:39:39.030Z,29.10
2022-11-12T11:42:38.340Z,29.15
2022-11-12T11:45:34.583Z,28.10
2022-11-12T11:48:48.382Z,28.95
2022-11-12T11:51:57.207Z,30.55
2022-11-12T11:55:21.163Z,28.52
2022-11-12T11:58:12.842Z,31.25
2022-11-12T12:01:20.377Z,27.33
2022-11-12T12:04:27.843Z,27.45
2022-11-12T12:07:45.093Z,25.70
2022-11-12T12:11:09.885Z,28.65
2022-11-12T12:14:05.123Z,25.37
2022-11-12T12:20:14.468Z,27.60
2022-11-12T12:23:10.786Z,25.42
2022-11-12T12:26:00.402Z,27.75
2022-11-12T12:28:46.388Z,29.48
2022-11-12T12:31:46.255Z,38.42
2022-11-12T12:34:38.935Z,33.35
2022-11-12T12:37:27.877Z,29.83
2022-11-12T12:40:34.001Z,32.70
2022-11-12T12:43:32.523Z,27.17
2022-11-12T12:46:23.197Z,34.25
2022-11-12T12:49:16.167Z,31.33
2022-11-12T12:52:02.185Z,36.85
2022-11-12T12:54:47.735Z,33.15
2022-11-12T12:57:37.909Z,29.27
2022-11-12T13:00:40.345Z,26.42
2022-11-12T13:03:47.311Z,29.67
2022-11-12T13:06:39.008Z,27.20
2022-11-12T13:09:25.793Z,33.92
2022-11-12T13:12:11.552Z,29.17
2022-11-12T13:15:13.150Z,29.05
2022-11-12T13:17:59.178Z,29.90
2022-11-12T13:21:07.993Z,29.15
2022-11-12T13:24:07.174Z,30.98
2022-11-12T13:26:59.983Z,33.55
2022-11-12T13:29:47.244Z,30.27
2022-11-12T13:32:35.039Z,35.42
2022-11-12T13:35:23.680Z,32.15
2022-11-12T13:38:09.339Z,33.05
2022-11-12T13:41:16.915Z,30.37
2022-11-12T13:44:06.751Z,31.50
2022-11-12T13:46:53.483Z,31.33
2022-11-12T13:49:39.497Z,30.12
2022-11-12T13:52:25.305Z,32.13
2022-11-12T13:55:17.528Z,27.23
2022-11-12T13:58:03.451Z,27.58
2022-11-12T14:01:00.361Z,27.58
2022-11-12T14:03:48.743Z,21.58
2022-11-12T14:06:37.777Z,21.08
2022-11-12T14:09:29.884Z,19.00
2022-11-12T14:12:37.062Z,19.52
2022-11-12T14:15:31.955Z,20.27
2022-11-12T14:18:30.630Z,22.98
2022-11-12T14:21:17.906Z,24.45
2022-11-12T14:24:04.705Z,24.40
2022-11-12T14:26:51.007Z,28.12
2022-11-12T14:29:41.079Z,23.67
2022-11-12T14:35:31.693Z,24.00
2022-11-12T14:38:21.755Z,27.45
2022-11-12T14:41:20.388Z,25.85
2022-11-12T14:44:13.937Z,25.40
2022-11-12T14:47:00.518Z,23.30
2022-11-12T14:49:48.124Z,27.13
2022-11-12T14:52:37.571Z,24.73
2022-11-12T14:55:26.886Z,20.33
2022-11-12T14:58:14.935Z,20.77
2022-11-12T15:04:51.844Z,24.45
2022-11-12T15:07:58.723Z,25.12
2022-11-12T15:10:45.060Z,25.77
2022-11-12T15:13:38.406Z,25.42
2022-11-12T15:16:27.540Z,30.33
2022-11-12T15:19:28.883Z,27.23
2022-11-12T15:22:22.199Z,26.58
2022-11-12T15:25:24.951Z,28.35
2022-11-12T15:31:22.388Z,28.17
2022-11-12T15:34:48.098Z,39.00
2022-11-12T15:37:41.138Z,36.17
2022-11-12T15:40:26.951Z,38.08
2022-11-12T15:43:18.526Z,32.88
2022-11-12T15:46:04.276Z,31.75
2022-11-12T15:48:55.509Z,34.28
2022-11-12T15:51:41.658Z,35.72
2022-11-12T15:54:27.251Z,36.17
2022-11-12T15:57:19.026Z,34.65
2022-11-12T16:00:09.884Z,37.90
2022-11-12T16:02:59.228Z,32.63
2022-11-12T16:05:45.598Z,34.70
2022-11-12T16:08:31.432Z,36.10
2022-11-12T16:11:35.645Z,35.67
2022-11-12T16:14:24.797Z,42.62
2022-11-12T16:17:15.719Z,41.70
2022-11-12T16:20:01.749Z,38.28
2022-11-12T16:22:48.696Z,41.75
2022-11-12T16:25:36.340Z,61.85
2022-11-12T16:28:22.200Z,58.78
2022-11-12T16:31:08.275Z,55.88
2022-11-12T16:33:54.098Z,57.35
2022-11-12T16:36:39.971Z,61.42
2022-11-12T16:39:25.718Z,70.70
2022-11-12T16:42:11.347Z,68.82
2022-11-12T16:44:57.207Z,65.97
2022-11-12T16:47:45.492Z,58.22
2022-11-12T16:50:31.163Z,59.72
2022-11-12T16:53:16.770Z,54.83
2022-11-12T16:56:02.586Z,64.32
2022-11-12T16:58:49.155Z,63.58
2022-11-12T17:01:35.312Z,60.17
2022-11-12T17:04:24.286Z,60.40
2022-11-12T17:07:10.013Z,65.37
2022-11-12T17:09:55.695Z,67.32
2022-11-12T17:12:41.367Z,65.80
2022-11-12T17:15:27.239Z,63.10
2022-11-12T17:18:13.337Z,57.58
2022-11-12T17:21:09.965Z,50.90
2022-11-12T17:23:57.905Z,51.58
2022-11-12T17:26:43.498Z,51.08
2022-11-12T17:29:29.449Z,53.25
2022-11-12T17:32:15.228Z,52.33
2022-11-12T17:35:00.803Z,47.58
2022-11-12T17:37:46.508Z,50.75
2022-11-12T17:40:32.075Z,46.42
2022-11-12T17:43:17.713Z,48.30
2022-11-12T17:46:04.804Z,47.85
2022-11-12T17:48:50.815Z,49.03
2022-11-12T17:51:36.841Z,51.28
2022-11-12T17:54:22.780Z,51.63
2022-11-12T17:57:08.382Z,47.70
2022-11-12T17:59:54.276Z,52.55
2022-11-12T18:02:39.846Z,56.22
2022-11-12T18:05:25.559Z,55.53
2022-11-12T18:08:11.678Z,54.97
2022-11-12T18:10:57.647Z,58.55
2022-11-12T18:13:43.343Z,60.53
2022-11-12T18:16:29.225Z,58.20
2022-11-12T18:19:15.688Z,58.60
2022-11-12T18:22:02.313Z,55.20
2022-11-12T18:24:48.589Z,55.58
2022-11-12T18:27:34.315Z,54.08
2022-11-12T18:30:19.995Z,57.00
2022-11-12T18:33:05.728Z,58.53
2022-11-12T18:36:01.103Z,68.40
2022-11-12T18:38:49.931Z,67.70
2022-11-12T18:41:35.758Z,73.68
2022-11-12T18:44:25.858Z,79.65
2022-11-12T18:47:12.164Z,79.00
2022-11-12T18:49:57.842Z,112.72
2022-11-12T18:52:43.692Z,160.88
2022-11-12T18:55:29.402Z,119.80
2022-11-12T18:58:15.115Z,79.25
2022-11-12T19:01:05.342Z,78.95
2022-11-12T19:03:55.811Z,87.80
2022-11-12T19:06:41.699Z,95.62
2022-11-12T19:09:27.395Z,91.18
2022-11-12T19:12:13.348Z,98.95
2022-11-12T19:14:58.997Z,94.20
2022-11-12T19:17:44.868Z,91.45
2022-11-12T19:20:30.691Z,91.05
2022-11-12T19:23:16.434Z,92.45
2022-11-12T19:26:03.736Z,94.10
2022-11-12T19:28:49.682Z,86.53
2022-11-12T19:31:35.540Z,88.07
2022-11-12T19:34:21.299Z,76.95
2022-11-12T19:37:31.960Z,84.10
2022-11-12T19:40:12.908Z,110.15
2022-11-12T19:42:58.799Z,115.40
2022-11-12T19:45:44.699Z,108.40
2022-11-12T19:48:31.248Z,104.70
2022-11-12T19:51:17.670Z,121.05
2022-11-12T19:54:04.532Z,123.47
2022-11-12T19:56:50.544Z,113.55
2022-11-12T19:59:36.245Z,104.25
2022-11-12T20:02:21.926Z,108.07
2022-11-12T20:05:07.979Z,114.05
2022-11-12T20:07:55.695Z,102.20
2022-11-12T20:10:41.335Z,96.75
2022-11-12T20:13:27.510Z,89.25
2022-11-12T20:16:16.108Z,91.22
2022-11-12T20:19:03.489Z,76.53
2022-11-12T20:21:49.401Z,69.82
2022-11-12T20:24:35.158Z,62.08
2022-11-12T20:27:20.968Z,72.47
2022-11-12T20:30:07.736Z,77.32
2022-11-12T20:32:53.665Z,83.90
2022-11-12T20:35:39.445Z,82.75
2022-11-12T20:38:25.559Z,79.78
2022-11-12T20:41:22.039Z,76.25
2022-11-12T20:44:08.153Z,78.12
2022-11-12T20:46:53.900Z,78.85
2022-11-12T20:49:39.719Z,77.40
2022-11-12T20:52:25.688Z,76.62
2022-11-12T20:55:11.654Z,83.57
2022-11-12T20:57:57.755Z,89.87
2022-11-12T21:00:43.342Z,79.32
2022-11-12T21:03:29.350Z,86.00
2022-11-12T21:06:17.471Z,76.68
2022-11-12T21:09:03.520Z,73.32
2022-11-12T21:11:49.695Z,72.85
2022-11-12T21:14:36.006Z,60.92
2022-11-12T21:17:21.684Z,61.90
2022-11-12T21:20:07.662Z,61.22
2022-11-12T21:22:53.394Z,63.65
2022-11-12T21:25:40.084Z,56.75
2022-11-12T21:28:26.360Z,62.25
2022-11-12T21:31:20.585Z,59.67
2022-11-12T21:34:07.057Z,61.03
2022-11-12T21:36:52.839Z,58.90
2022-11-12T21:39:38.631Z,58.22
2022-11-12T21:42:24.386Z,56.63
2022-11-12T21:45:10.582Z,56.28
2022-11-12T21:47:56.738Z,60.03
2022-11-12T21:50:42.642Z,65.35
2022-11-12T21:53:28.387Z,60.47
2022-11-12T21:56:17.603Z,58.60
2022-11-12T21:59:04.365Z,49.80
2022-11-12T22:01:49.951Z,55.67
2022-11-12T22:04:35.631Z,49.67
2022-11-12T22:07:21.319Z,47.47
2022-11-12T22:10:07.803Z,55.42
2022-11-12T22:13:24.860Z,54.33
2022-11-12T22:15:59.339Z,56.78
2022-11-12T22:18:49.940Z,50.25
2022-11-12T22:21:39.941Z,51.28
2022-11-12T22:24:26.082Z,51.85
2022-11-12T22:27:11.620Z,51.75
2022-11-12T22:29:57.431Z,52.03
2022-11-12T22:32:43.088Z,45.88
2022-11-12T22:35:28.654Z,50.85
2022-11-12T22:38:14.458Z,47.30
2022-11-12T22:41:01.788Z,48.90
2022-11-12T22:43:53.162Z,47.55
2022-11-12T22:46:39.122Z,47.13
2022-11-12T22:49:24.853Z,54.38
2022-11-12T22:52:10.386Z,55.03
2022-11-12T22:54:56.031Z,51.35
2022-11-12T22:57:41.718Z,49.80
2022-11-12T23:00:31.895Z,53.53
2022-11-12T23:03:17.730Z,51.63
2022-11-12T23:06:05.798Z,46.03
2022-11-12T23:08:53.348Z,48.17
2022-11-12T23:11:39.325Z,51.15
2022-11-12T23:14:25.075Z,50.88
2022-11-12T23:17:10.711Z,49.42
2022-11-12T23:19:56.673Z,46.83
2022-11-12T23:22:42.583Z,48.33
2022-11-12T23:25:28.520Z,49.80
2022-11-12T23:28:14.247Z,42.13
2022-11-12T23:31:00.355Z,47.90
2022-11-12T23:33:47.625Z,46.78
2022-11-12T23:36:33.483Z,44.75
2022-11-12T23:39:19.186Z,49.08
2022-11-12T23:42:05.350Z,47.78
2022-11-12T23:44:50.955Z,44.78
2022-11-12T23:47:36.509Z,47.40
2022-11-12T23:50:22.327Z,46.05
2022-11-12T23:53:07.904Z,47.88
2022-11-12T23:55:54.127Z,49.58
2022-11-12T23:58:41.073Z,47.70
